Time;durP1;ratioP1;P1;durP2;ratioP2;P2;SDS_P1;SDS_P2;PMS_P1;PMS_P2;Temp;Humidity;BMP_temperature;BMP_pressure;BME280_temperature;BME280_humidity;BME280_pressure;Samples;Min_cycle;Max_cycle;Signal;HPM_P1;HPM_P2
2022/09/10 00:01:11;;;;;;;3.10;1.48;;;;;;;;;;4985903;28;20030;-74
2022/09/10 00:03:57;;;;;;;2.65;1.10;;;;;;;;;;4989872;28;20026;-75
2022/09/10 00:06:43;;;;;;;3.83;1.20;;;;;;;;;;4984839;28;20502;-76
2022/09/10 00:09:29;;;;;;;6.07;1.50;;;;;;;;;;4990212;28;20125;-70
2022/09/10 00:12:14;;;;;;;4.18;1.27;;;;;;;;;;4988302;28;20033;-70
2022/09/10 00:15:00;;;;;;;3.97;1.48;;;;;;;;;;4985644;28;20058;-70
2022/09/10 00:17:46;;;;;;;3.92;1.55;;;;;;;;;;4990021;28;20026;-70
2022/09/10 00:20:32;;;;;;;2.80;1.30;;;;;;;;;;4989105;28;20415;-69
2022/09/10 00:23:18;;;;;;;3.95;1.50;;;;;;;;;;4986967;28;20101;-70
2022/09/10 00:26:16;;;;;;;3.30;1.33;;;;;;;;;;4988199;28;20052;-72
2022/09/10 00:29:02;;;;;;;3.47;1.23;;;;;;;;;;4982074;28;20035;-76
2022/09/10 00:31:48;;;;;;;4.88;1.25;;;;;;;;;;4980677;28;20029;-76
2022/09/10 00:34:33;;;;;;;3.17;1.48;;;;;;;;;;4994080;28;20026;-74
2022/09/10 00:37:20;;;;;;;3.38;1.30;;;;;;;;;;4987665;28;20758;-74
2022/09/10 00:40:06;;;;;;;5.90;1.70;;;;;;;;;;4980721;28;20508;-74
2022/09/10 00:42:52;;;;;;;5.40;1.38;;;;;;;;;;4983010;28;20030;-75
2022/09/10 00:45:37;;;;;;;3.10;2.08;;;;;;;;;;4984760;28;20506;-75
2022/09/10 00:48:27;;;;;;;2.03;1.27;;;;;;;;;;4976390;28;20026;-78
2022/09/10 00:51:13;;;;;;;1.88;0.82;;;;;;;;;;4979350;28;20528;-77
2022/09/10 00:53:59;;;;;;;2.05;0.85;;;;;;;;;;4976135;28;20026;-78
2022/09/10 00:56:45;;;;;;;4.30;1.40;;;;;;;;;;4982709;28;20118;-77
2022/09/10 00:59:31;;;;;;;1.42;1.05;;;;;;;;;;4983485;28;20034;-78
2022/09/10 01:02:17;;;;;;;9.02;1.05;;;;;;;;;;4981566;28;20174;-78
2022/09/10 01:05:03;;;;;;;2.42;1.00;;;;;;;;;;4985674;28;20050;-77
2022/09/10 01:07:49;;;;;;;4.05;1.10;;;;;;;;;;4983372;28;20030;-78
2022/09/10 01:10:40;;;;;;;0.80;0.80;;;;;;;;;;4980390;28;20085;-77
2022/09/10 01:13:33;;;;;;;2.45;1.20;;;;;;;;;;4971242;28;20548;-77
2022/09/10 01:16:29;;;;;;;1.65;0.95;;;;;;;;;;4981078;28;20534;-77
2022/09/10 01:19:27;;;;;;;1.02;0.82;;;;;;;;;;4978398;28;20061;-77
2022/09/10 01:22:12;;;;;;;1.33;0.70;;;;;;;;;;4982728;28;20030;-75
2022/09/10 01:25:02;;;;;;;2.20;0.88;;;;;;;;;;4986641;28;20051;-77
2022/09/10 01:27:59;;;;;;;1.65;0.95;;;;;;;;;;4977291;28;20065;-77
2022/09/10 01:30:48;;;;;;;3.88;1.17;;;;;;;;;;4980046;28;20089;-77
2022/09/10 01:33:41;;;;;;;2.40;0.80;;;;;;;;;;4978069;28;20379;-77
2022/09/10 01:36:30;;;;;;;2.22;0.95;;;;;;;;;;4985718;28;20029;-77
2022/09/10 01:39:17;;;;;;;2.60;0.80;;;;;;;;;;4986988;28;20026;-74
2022/09/10 01:42:03;;;;;;;3.10;1.00;;;;;;;;;;4972144;28;20034;-77
2022/09/10 01:44:50;;;;;;;1.17;0.77;;;;;;;;;;4978760;28;20034;-77
2022/09/10 01:47:42;;;;;;;1.20;1.08;;;;;;;;;;4977187;28;20740;-77
2022/09/10 01:50:46;;;;;;;3.15;0.90;;;;;;;;;;4986008;28;20045;-77
2022/09/10 01:53:59;;;;;;;1.75;0.93;;;;;;;;;;4975608;28;20018;-78
2022/09/10 01:56:47;;;;;;;2.47;0.85;;;;;;;;;;4967176;28;20132;-68
2022/09/10 01:59:33;;;;;;;1.27;0.77;;;;;;;;;;4980635;28;20030;-68
2022/09/10 02:02:24;;;;;;;4.32;0.90;;;;;;;;;;4986824;28;20034;-68
2022/09/10 02:05:10;;;;;;;3.20;1.17;;;;;;;;;;4983933;28;20389;-68
2022/09/10 02:07:58;;;;;;;2.00;0.80;;;;;;;;;;4989070;28;20100;-68
2022/09/10 02:10:53;;;;;;;1.00;0.90;;;;;;;;;;4986753;28;20086;-69
2022/09/10 02:13:41;;;;;;;2.42;0.80;;;;;;;;;;4986825;28;20382;-69
2022/09/10 02:16:33;;;;;;;0.80;0.70;;;;;;;;;;4984268;28;20477;-74
2022/09/10 02:19:18;;;;;;;2.10;1.20;;;;;;;;;;4980732;28;20535;-77
2022/09/10 02:22:04;;;;;;;5.90;1.10;;;;;;;;;;4973930;28;20500;-77
2022/09/10 02:24:50;;;;;;;5.28;1.30;;;;;;;;;;4985077;28;20482;-76
2022/09/10 02:27:37;;;;;;;4.90;1.20;;;;;;;;;;4983265;28;20073;-77
2022/09/10 02:30:23;;;;;;;5.97;1.33;;;;;;;;;;4980131;28;20053;-77
2022/09/10 02:33:10;;;;;;;4.05;1.10;;;;;;;;;;4983370;28;20034;-78
2022/09/10 02:35:57;;;;;;;2.58;1.02;;;;;;;;;;4968949;28;20030;-72
2022/09/10 02:38:43;;;;;;;4.95;1.20;;;;;;;;;;4988496;28;20532;-70
2022/09/10 02:41:32;;;;;;;3.33;1.13;;;;;;;;;;4985145;28;20097;-71
2022/09/10 02:44:18;;;;;;;;;;;;;;;;;;4984045;28;20077;-70
2022/09/10 02:47:04;;;;;;;2.22;1.27;;;;;;;;;;4973393;28;19910;-69
2022/09/10 02:49:50;;;;;;;3.30;1.15;;;;;;;;;;4985483;28;20053;-69
2022/09/10 02:52:36;;;;;;;3.33;1.00;;;;;;;;;;4984208;28;20038;-79
2022/09/10 02:55:21;;;;;;;2.95;1.13;;;;;;;;;;4984444;28;20030;-79
2022/09/10 02:58:07;;;;;;;2.15;1.10;;;;;;;;;;4982390;28;21845;-78
2022/09/10 03:00:53;;;;;;;3.90;1.27;;;;;;;;;;4985538;28;20482;-78
2022/09/10 03:03:39;;;;;;;3.13;1.42;;;;;;;;;;4988671;28;20030;-78
2022/09/10 03:06:25;;;;;;;5.57;1.65;;;;;;;;;;4987132;28;20030;-79
2022/09/10 03:09:10;;;;;;;3.65;1.20;;;;;;;;;;4986962;28;20126;-79
2022/09/10 03:11:56;;;;;;;2.55;1.00;;;;;;;;;;4987307;28;20022;-69
2022/09/10 03:14:42;;;;;;;3.58;1.02;;;;;;;;;;4981109;28;20027;-74
2022/09/10 03:17:27;;;;;;;2.15;1.08;;;;;;;;;;4988603;28;20022;-74
2022/09/10 03:20:13;;;;;;;5.38;1.17;;;;;;;;;;4984789;28;20031;-75
2022/09/10 03:22:59;;;;;;;3.53;1.30;;;;;;;;;;4991741;28;20375;-73
2022/09/10 03:25:45;;;;;;;3.08;1.05;;;;;;;;;;4991212;28;20014;-73
2022/09/10 03:28:32;;;;;;;3.50;1.55;;;;;;;;;;4986120;28;20034;-78
2022/09/10 03:31:17;;;;;;;1.65;1.00;;;;;;;;;;4987519;28;20038;-71
2022/09/10 03:34:03;;;;;;;0.82;0.70;;;;;;;;;;4987664;28;20381;-69
2022/09/10 03:36:50;;;;;;;4.05;1.30;;;;;;;;;;4986168;28;20033;-69
2022/09/10 03:39:35;;;;;;;3.30;1.05;;;;;;;;;;4977241;28;20019;-69
2022/09/10 03:42:21;;;;;;;2.85;1.10;;;;;;;;;;4984484;28;20034;-69
2022/09/10 03:45:07;;;;;;;3.83;1.13;;;;;;;;;;4983252;28;20034;-69
2022/09/10 03:47:52;;;;;;;2.45;1.50;;;;;;;;;;4977571;28;20134;-77
2022/09/10 03:50:38;;;;;;;2.05;1.15;;;;;;;;;;4990851;28;20393;-73
2022/09/10 03:53:23;;;;;;;4.25;1.10;;;;;;;;;;4988643;28;20030;-73
2022/09/10 03:56:10;;;;;;;2.88;1.20;;;;;;;;;;4992799;28;20551;-73
2022/09/10 03:58:56;;;;;;;2.72;1.02;;;;;;;;;;4979351;28;20105;-74
2022/09/10 04:01:41;;;;;;;3.38;1.42;;;;;;;;;;4989663;28;20493;-73
2022/09/10 04:04:28;;;;;;;2.97;1.35;;;;;;;;;;4986634;28;20033;-74
2022/09/10 04:07:13;;;;;;;3.60;1.33;;;;;;;;;;4983603;28;20045;-73
2022/09/10 04:09:59;;;;;;;1.95;1.20;;;;;;;;;;4977554;28;20049;-78
2022/09/10 04:12:44;;;;;;;5.57;1.10;;;;;;;;;;4990838;28;20489;-78
2022/09/10 04:15:30;;;;;;;1.83;0.98;;;;;;;;;;4992567;28;20465;-77
2022/09/10 04:18:16;;;;;;;3.13;1.20;;;;;;;;;;4981791;28;20093;-79
2022/09/10 04:21:02;;;;;;;4.32;1.25;;;;;;;;;;4977626;28;20109;-78
2022/09/10 04:23:47;;;;;;;1.98;1.13;;;;;;;;;;4991325;28;20030;-75
2022/09/10 04:26:33;;;;;;;3.92;1.70;;;;;;;;;;4983315;28;20029;-74
2022/09/10 04:29:18;;;;;;;2.65;1.10;;;;;;;;;;4987059;28;20120;-72
2022/09/10 04:32:04;;;;;;;1.50;1.20;;;;;;;;;;4989536;28;20370;-73
2022/09/10 04:34:50;;;;;;;5.72;2.20;;;;;;;;;;4983628;28;20095;-72
2022/09/10 04:37:36;;;;;;;1.90;0.95;;;;;;;;;;4991062;28;20026;-73
2022/09/10 04:40:21;;;;;;;3.15;1.38;;;;;;;;;;4984071;28;20019;-72
2022/09/10 04:43:07;;;;;;;2.70;1.17;;;;;;;;;;4986722;28;20026;-76
2022/09/10 04:45:54;;;;;;;3.58;1.17;;;;;;;;;;4981991;28;20465;-74
2022/09/10 04:48:39;;;;;;;2.60;1.58;;;;;;;;;;4987709;28;20568;-74
2022/09/10 04:51:25;;;;;;;2.67;1.17;;;;;;;;;;4989581;28;20033;-74
2022/09/10 04:54:13;;;;;;;1.13;0.90;;;;;;;;;;4982881;28;20034;-73
2022/09/10 04:56:59;;;;;;;4.78;1.27;;;;;;;;;;4973800;28;20030;-75
2022/09/10 04:59:45;;;;;;;5.15;1.10;;;;;;;;;;4990910;28;20158;-74
2022/09/10 05:02:30;;;;;;;3.03;1.00;;;;;;;;;;4983055;28;20015;-69
2022/09/10 05:05:16;;;;;;;3.47;1.30;;;;;;;;;;4986872;28;20366;-77
2022/09/10 05:08:04;;;;;;;1.85;0.98;;;;;;;;;;4984134;28;20022;-76
2022/09/10 05:10:50;;;;;;;1.40;0.98;;;;;;;;;;4986560;28;20023;-76
2022/09/10 05:13:36;;;;;;;2.40;1.70;;;;;;;;;;4984319;28;20019;-77
2022/09/10 05:16:21;;;;;;;4.82;1.17;;;;;;;;;;4984544;28;20397;-76
2022/09/10 05:19:07;;;;;;;2.72;1.35;;;;;;;;;;4984568;28;20030;-77
2022/09/10 05:21:52;;;;;;;4.30;1.50;;;;;;;;;;4990515;28;20513;-74
2022/09/10 05:24:38;;;;;;;3.38;1.23;;;;;;;;;;4987083;28;20050;-74
2022/09/10 05:27:24;;;;;;;6.38;1.50;;;;;;;;;;4976482;28;20278;-74
2022/09/10 05:30:09;;;;;;;1.95;1.08;;;;;;;;;;4985478;28;20027;-75
2022/09/10 05:32:55;;;;;;;5.00;1.15;;;;;;;;;;4985831;28;20112;-74
2022/09/10 05:35:40;;;;;;;2.20;1.10;;;;;;;;;;4976841;28;20060;-74
2022/09/10 05:38:26;;;;;;;4.20;1.70;;;;;;;;;;4986421;28;20447;-74
2022/09/10 05:41:11;;;;;;;1.67;1.17;;;;;;;;;;4980930;28;20069;-77
2022/09/10 05:43:58;;;;;;;2.55;1.00;;;;;;;;;;4983221;28;20030;-78
2022/09/10 05:46:43;;;;;;;1.50;0.90;;;;;;;;;;4975262;28;20109;-79
2022/09/10 05:49:29;;;;;;;1.80;1.00;;;;;;;;;;4987342;28;20045;-77
2022/09/10 05:52:14;;;;;;;2.78;1.10;;;;;;;;;;4978684;28;20037;-77
2022/09/10 05:55:00;;;;;;;1.80;1.27;;;;;;;;;;4988109;28;20022;-77
2022/09/10 05:57:46;;;;;;;4.05;1.60;;;;;;;;;;4977668;28;20032;-74
2022/09/10 06:00:32;;;;;;;1.50;0.85;;;;;;;;;;4981177;28;20023;-68
2022/09/10 06:03:18;;;;;;;1.38;1.00;;;;;;;;;;4983293;28;20026;-70
2022/09/10 06:06:05;;;;;;;1.95;1.30;;;;;;;;;;4971573;28;20023;-69
2022/09/10 06:08:50;;;;;;;1.80;0.95;;;;;;;;;;4982255;28;20088;-69
2022/09/10 06:11:36;;;;;;;2.28;1.23;;;;;;;;;;4987357;28;20068;-68
2022/09/10 06:14:23;;;;;;;2.53;1.10;;;;;;;;;;4986871;28;20027;-70
2022/09/10 06:17:08;;;;;;;2.60;1.48;;;;;;;;;;4987452;28;20393;-74
2022/09/10 06:19:54;;;;;;;1.50;0.90;;;;;;;;;;4974568;28;20034;-79
2022/09/10 06:22:40;;;;;;;1.65;1.17;;;;;;;;;;4978697;28;20169;-79
2022/09/10 06:25:26;;;;;;;1.63;1.00;;;;;;;;;;4991090;28;20058;-76
2022/09/10 06:28:11;;;;;;;2.58;1.20;;;;;;;;;;4973918;28;20030;-78
2022/09/10 06:30:57;;;;;;;2.40;1.27;;;;;;;;;;4986276;28;20081;-78
2022/09/10 06:33:43;;;;;;;8.60;1.10;;;;;;;;;;4984328;28;20492;-73
2022/09/10 06:36:28;;;;;;;0.88;0.80;;;;;;;;;;4981561;28;20026;-68
2022/09/10 06:39:14;;;;;;;3.30;1.40;;;;;;;;;;4983711;28;20026;-68
2022/09/10 06:42:00;;;;;;;4.35;1.30;;;;;;;;;;4985352;28;20050;-69
2022/09/10 06:44:45;;;;;;;1.95;1.08;;;;;;;;;;4980979;28;20154;-69
2022/09/10 06:47:31;;;;;;;3.55;1.00;;;;;;;;;;4982648;28;20105;-68
2022/09/10 06:50:16;;;;;;;1.25;1.08;;;;;;;;;;4988144;28;20037;-68
2022/09/10 06:53:02;;;;;;;3.17;1.20;;;;;;;;;;4982994;28;20386;-70
2022/09/10 06:55:51;;;;;;;4.00;1.20;;;;;;;;;;4982059;28;20022;-74
2022/09/10 06:58:38;;;;;;;1.73;1.05;;;;;;;;;;4974813;28;20025;-75
2022/09/10 07:01:24;;;;;;;1.52;1.25;;;;;;;;;;4974362;28;20057;-74
2022/09/10 07:04:10;;;;;;;2.92;1.60;;;;;;;;;;4978904;28;20029;-75
2022/09/10 07:06:56;;;;;;;2.95;1.20;;;;;;;;;;4976446;28;20046;-73
2022/09/10 07:09:42;;;;;;;3.67;1.15;;;;;;;;;;4973322;28;20042;-77
2022/09/10 07:12:27;;;;;;;3.17;1.60;;;;;;;;;;4987504;28;20080;-74
2022/09/10 07:15:13;;;;;;;5.45;1.35;;;;;;;;;;4976193;28;20473;-78
2022/09/10 07:17:59;;;;;;;2.95;0.98;;;;;;;;;;4970223;28;20030;-77
2022/09/10 07:20:45;;;;;;;4.72;1.30;;;;;;;;;;4984185;28;20413;-76
2022/09/10 07:23:30;;;;;;;3.45;1.20;;;;;;;;;;4975560;28;20022;-76
2022/09/10 07:26:17;;;;;;;3.65;0.90;;;;;;;;;;4983700;28;20122;-78
2022/09/10 07:29:03;;;;;;;2.83;1.00;;;;;;;;;;4988455;28;20037;-71
2022/09/10 07:31:49;;;;;;;9.10;1.52;;;;;;;;;;4969491;28;20027;-69
2022/09/10 07:34:34;;;;;;;1.52;0.90;;;;;;;;;;4983223;28;20030;-69
2022/09/10 07:37:21;;;;;;;2.72;1.00;;;;;;;;;;4973766;28;20077;-68
2022/09/10 07:40:07;;;;;;;2.88;1.42;;;;;;;;;;4979146;28;20031;-69
2022/09/10 07:42:55;;;;;;;2.38;0.90;;;;;;;;;;4973564;28;20521;-70
2022/09/10 07:45:41;;;;;;;2.38;1.00;;;;;;;;;;4986062;28;20121;-69
2022/09/10 07:48:27;;;;;;;1.63;1.13;;;;;;;;;;4986863;28;20038;-75
2022/09/10 07:51:16;;;;;;;3.88;1.20;;;;;;;;;;4970944;28;20037;-76
2022/09/10 07:54:04;;;;;;;1.80;0.80;;;;;;;;;;4985535;28;20026;-78
2022/09/10 07:56:49;;;;;;;2.20;1.17;;;;;;;;;;4985948;28;20101;-78
2022/09/10 07:59:35;;;;;;;1.05;0.90;;;;;;;;;;4984576;28;20547;-79
2022/09/10 08:02:24;;;;;;;2.75;1.13;;;;;;;;;;4986942;28;20034;-77
2022/09/10 08:05:10;;;;;;;3.13;1.20;;;;;;;;;;4992503;28;20084;-68
2022/09/10 08:07:56;;;;;;;2.03;0.88;;;;;;;;;;4986673;28;20053;-74
2022/09/10 08:10:41;;;;;;;4.05;1.13;;;;;;;;;;4985580;28;20049;-75
2022/09/10 08:13:28;;;;;;;2.65;1.17;;;;;;;;;;4982130;28;20026;-74
2022/09/10 08:16:15;;;;;;;1.90;0.90;;;;;;;;;;4980510;28;20126;-73
2022/09/10 08:19:01;;;;;;;4.03;1.25;;;;;;;;;;4982664;28;20094;-74
2022/09/10 08:21:47;;;;;;;2.78;1.25;;;;;;;;;;4990548;28;20056;-73
2022/09/10 08:24:32;;;;;;;1.95;0.80;;;;;;;;;;4968713;28;20074;-76
2022/09/10 08:27:18;;;;;;;1.05;0.85;;;;;;;;;;4993285;28;20030;-70
2022/09/10 08:30:04;;;;;;;2.85;0.98;;;;;;;;;;4989437;28;20041;-69
2022/09/10 08:32:50;;;;;;;2.28;1.15;;;;;;;;;;4987524;28;20033;-67
2022/09/10 08:35:36;;;;;;;4.88;0.80;;;;;;;;;;4989370;28;20577;-68
2022/09/10 08:38:25;;;;;;;2.08;0.75;;;;;;;;;;4985130;28;20026;-69
2022/09/10 08:41:31;;;;;;;2.53;0.90;;;;;;;;;;4991395;28;20035;-70
2022/09/10 08:44:27;;;;;;;2.67;1.00;;;;;;;;;;4993710;28;20034;-74
2022/09/10 08:47:33;;;;;;;3.22;0.90;;;;;;;;;;4991276;28;20097;-79
2022/09/10 08:50:19;;;;;;;3.67;1.33;;;;;;;;;;4990986;28;20034;-77
2022/09/10 08:53:17;;;;;;;2.53;0.88;;;;;;;;;;4990743;28;20099;-79
2022/09/10 08:56:04;;;;;;;3.75;1.17;;;;;;;;;;4990955;28;20287;-77
2022/09/10 08:58:57;;;;;;;2.63;1.10;;;;;;;;;;4989999;28;20038;-79
2022/09/10 09:01:46;;;;;;;3.65;1.23;;;;;;;;;;4987964;28;20050;-67
2022/09/10 09:04:50;;;;;;;5.60;1.45;;;;;;;;;;4982694;28;20026;-76
2022/09/10 09:07:38;;;;;;;3.17;1.13;;;;;;;;;;4986808;28;20031;-73
2022/09/10 09:10:23;;;;;;;7.43;1.52;;;;;;;;;;4985621;28;20030;-75
2022/09/10 09:13:16;;;;;;;2.63;1.20;;;;;;;;;;4989124;28;20101;-75
2022/09/10 09:16:04;;;;;;;2.22;0.93;;;;;;;;;;4989243;28;20026;-74
2022/09/10 09:18:56;;;;;;;3.20;1.03;;;;;;;;;;4987180;28;20042;-75
2022/09/10 09:21:47;;;;;;;3.55;1.92;;;;;;;;;;4985907;28;20064;-70
2022/09/10 09:24:47;;;;;;;2.78;1.10;;;;;;;;;;4988019;28;20102;-69
2022/09/10 09:27:35;;;;;;;3.28;1.25;;;;;;;;;;4990725;28;20097;-69
2022/09/10 09:30:27;;;;;;;2.47;1.10;;;;;;;;;;4988477;28;20042;-68
2022/09/10 09:33:15;;;;;;;4.07;1.13;;;;;;;;;;4974411;28;20085;-69
2022/09/10 09:36:01;;;;;;;2.25;0.88;;;;;;;;;;4985400;28;20022;-69
2022/09/10 09:38:47;;;;;;;5.93;1.50;;;;;;;;;;4988971;28;20444;-75
2022/09/10 09:41:39;;;;;;;4.85;1.05;;;;;;;;;;4985926;28;20030;-77
2022/09/10 09:44:28;;;;;;;2.90;1.17;;;;;;;;;;4986129;28;20141;-75
2022/09/10 09:47:14;;;;;;;3.67;1.00;;;;;;;;;;4988278;28;20391;-78
2022/09/10 09:49:59;;;;;;;3.63;1.10;;;;;;;;;;4985513;28;20042;-77
2022/09/10 09:52:46;;;;;;;3.03;1.20;;;;;;;;;;4977671;28;20398;-75
2022/09/10 09:55:39;;;;;;;1.67;0.98;;;;;;;;;;4979873;28;20484;-76
2022/09/10 09:58:25;;;;;;;3.75;1.20;;;;;;;;;;4986804;28;20413;-75
2022/09/10 10:01:13;;;;;;;3.22;1.00;;;;;;;;;;4971469;28;20035;-74
2022/09/10 10:04:01;;;;;;;3.33;1.00;;;;;;;;;;4990170;28;20506;-73
2022/09/10 10:06:52;;;;;;;4.88;1.30;;;;;;;;;;4989254;28;20460;-74
2022/09/10 10:09:41;;;;;;;3.65;1.17;;;;;;;;;;4989953;28;20409;-74
2022/09/10 10:12:31;;;;;;;2.53;1.08;;;;;;;;;;4976994;28;20037;-75
2022/09/10 10:15:32;;;;;;;4.57;0.90;;;;;;;;;;4984515;28;20034;-73
2022/09/10 10:18:21;;;;;;;3.30;1.02;;;;;;;;;;4989809;28;20061;-64
2022/09/10 10:21:07;;;;;;;5.30;1.23;;;;;;;;;;4985716;28;20037;-64
2022/09/10 10:23:53;;;;;;;4.13;1.10;;;;;;;;;;4987379;28;20041;-66
2022/09/10 10:26:39;;;;;;;2.80;1.10;;;;;;;;;;4971311;28;20022;-63
2022/09/10 10:29:26;;;;;;;1.75;1.15;;;;;;;;;;4983740;28;20541;-64
2022/09/10 10:32:15;;;;;;;5.55;1.50;;;;;;;;;;4980889;28;20029;-72
2022/09/10 10:35:09;;;;;;;2.85;0.88;;;;;;;;;;4971997;28;20034;-66
2022/09/10 10:38:11;;;;;;;3.05;1.20;;;;;;;;;;4978775;28;20034;-73
2022/09/10 10:41:04;;;;;;;2.80;0.85;;;;;;;;;;4984915;28;20042;-70
2022/09/10 10:43:52;;;;;;;2.65;1.13;;;;;;;;;;4975741;28;20027;-68
2022/09/10 10:46:38;;;;;;;4.88;1.00;;;;;;;;;;4987423;28;20030;-69
2022/09/10 10:49:40;;;;;;;6.78;1.00;;;;;;;;;;4988074;28;20081;-70
2022/09/10 10:52:45;;;;;;;2.58;0.90;;;;;;;;;;4984280;28;20401;-67
2022/09/10 10:55:42;;;;;;;4.18;1.17;;;;;;;;;;4973675;28;20086;-62
2022/09/10 10:58:47;;;;;;;1.95;0.75;;;;;;;;;;4987703;28;20026;-63
2022/09/10 11:01:36;;;;;;;2.78;1.10;;;;;;;;;;4988053;28;20050;-61
2022/09/10 11:04:25;;;;;;;2.38;0.93;;;;;;;;;;4984803;28;20252;-60
2022/09/10 11:07:17;;;;;;;1.40;0.75;;;;;;;;;;4979288;28;20092;-59
2022/09/10 11:10:11;;;;;;;3.15;1.40;;;;;;;;;;4974753;28;20030;-63
2022/09/10 11:12:57;;;;;;;4.25;1.00;;;;;;;;;;4975973;28;20038;-64
2022/09/10 11:15:44;;;;;;;2.42;1.17;;;;;;;;;;4989295;28;20030;-64
2022/09/10 11:18:51;;;;;;;3.90;1.00;;;;;;;;;;4983353;28;20475;-65
2022/09/10 11:21:39;;;;;;;4.57;1.38;;;;;;;;;;4968668;28;20028;-66
2022/09/10 11:24:28;;;;;;;3.83;0.95;;;;;;;;;;4983195;28;20026;-65
2022/09/10 11:27:23;;;;;;;4.03;0.98;;;;;;;;;;4983263;28;20077;-70
2022/09/10 11:30:10;;;;;;;3.03;1.33;;;;;;;;;;4982441;28;20405;-61
2022/09/10 11:33:03;;;;;;;2.95;1.38;;;;;;;;;;4981129;28;20485;-63
2022/09/10 11:35:58;;;;;;;2.63;0.95;;;;;;;;;;4993191;28;20029;-62
2022/09/10 11:39:02;;;;;;;3.80;1.30;;;;;;;;;;4991188;28;20018;-64
2022/09/10 11:41:50;;;;;;;4.85;1.30;;;;;;;;;;4988136;28;20449;-61
2022/09/10 11:44:43;;;;;;;2.63;0.93;;;;;;;;;;4992660;28;20103;-62
2022/09/10 11:47:41;;;;;;;2.13;1.17;;;;;;;;;;4986009;28;20037;-67
2022/09/10 11:50:42;;;;;;;2.42;0.98;;;;;;;;;;4981312;28;20042;-66
2022/09/10 11:53:29;;;;;;;6.85;3.15;;;;;;;;;;4992290;28;20073;-65
2022/09/10 11:56:41;;;;;;;3.20;1.10;;;;;;;;;;4991885;28;20503;-65
2022/09/10 11:59:41;;;;;;;4.57;1.10;;;;;;;;;;4988854;28;20022;-67
2022/09/10 12:02:45;;;;;;;2.60;0.95;;;;;;;;;;4990153;28;20432;-67
2022/09/10 12:05:43;;;;;;;3.20;1.05;;;;;;;;;;4979042;28;20395;-72
2022/09/10 12:08:47;;;;;;;2.47;1.20;;;;;;;;;;4992484;28;20073;-72
2022/09/10 12:11:34;;;;;;;4.45;1.30;;;;;;;;;;4980778;28;20031;-73
2022/09/10 12:14:20;;;;;;;3.63;1.45;;;;;;;;;;4977249;28;20430;-70
2022/09/10 12:17:12;;;;;;;9.02;1.52;;;;;;;;;;4985765;28;20454;-69
2022/09/10 12:19:59;;;;;;;2.47;1.00;;;;;;;;;;4986747;28;20403;-70
2022/09/10 12:22:46;;;;;;;4.07;1.35;;;;;;;;;;4987917;28;20026;-71
2022/09/10 12:25:32;;;;;;;2.83;0.90;;;;;;;;;;4980754;28;20023;-74
2022/09/10 12:28:56;;;;;;;3.58;1.10;;;;;;;;;;4975252;28;20031;-74
2022/09/10 12:32:00;;;;;;;5.65;1.17;;;;;;;;;;4933172;29;20042;-75
2022/09/10 12:34:48;;;;;;;1.90;1.10;;;;;;;;;;4941336;29;20023;-75
2022/09/10 12:37:34;;;;;;;3.90;1.00;;;;;;;;;;4940548;29;20109;-75
2022/09/10 12:40:25;;;;;;;2.15;1.17;;;;;;;;;;4931907;29;20031;-74
2022/09/10 12:43:37;;;;;;;5.15;1.38;;;;;;;;;;4943344;28;20501;-72
2022/09/10 12:46:24;;;;;;;3.15;1.23;;;;;;;;;;4944437;28;20082;-67
2022/09/10 12:49:11;;;;;;;3.03;1.00;;;;;;;;;;4946600;29;20043;-67
2022/09/10 12:51:58;;;;;;;4.68;1.25;;;;;;;;;;4949639;29;20034;-66
2022/09/10 12:54:44;;;;;;;3.00;1.15;;;;;;;;;;4951560;28;20027;-68
2022/09/10 12:57:30;;;;;;;3.03;1.13;;;;;;;;;;4948119;29;20058;-66
2022/09/10 13:00:16;;;;;;;2.28;1.20;;;;;;;;;;4947947;29;20471;-67
2022/09/10 13:03:05;;;;;;;5.07;1.30;;;;;;;;;;4985788;28;20030;-71
2022/09/10 13:05:53;;;;;;;3.60;1.13;;;;;;;;;;4991333;28;20024;-69
2022/09/10 13:08:43;;;;;;;4.45;1.50;;;;;;;;;;4986903;28;20278;-64
2022/09/10 13:11:31;;;;;;;6.63;1.10;;;;;;;;;;4992496;28;20552;-69
2022/09/10 13:14:21;;;;;;;2.80;1.00;;;;;;;;;;4989372;28;20062;-70
2022/09/10 13:17:27;;;;;;;1.75;1.02;;;;;;;;;;4990046;28;20022;-70
2022/09/10 13:20:19;;;;;;;6.90;2.38;;;;;;;;;;4976813;28;20034;-69
2022/09/10 13:23:08;;;;;;;2.20;1.13;;;;;;;;;;4984637;28;20032;-75
2022/09/10 13:26:13;;;;;;;2.03;1.10;;;;;;;;;;4979698;28;20486;-78
2022/09/10 13:29:03;;;;;;;2.90;1.25;;;;;;;;;;4988623;28;20085;-79
2022/09/10 13:31:56;;;;;;;4.13;1.38;;;;;;;;;;4986797;28;20033;-78
2022/09/10 13:34:56;;;;;;;3.50;1.30;;;;;;;;;;4986475;28;20536;-79
2022/09/10 13:38:01;;;;;;;5.18;1.95;;;;;;;;;;4983513;28;20058;-64
2022/09/10 13:40:56;;;;;;;7.18;1.50;;;;;;;;;;4980582;28;20080;-69
2022/09/10 13:44:00;;;;;;;6.80;1.40;;;;;;;;;;4984161;28;20030;-70
2022/09/10 13:46:48;;;;;;;7.45;1.45;;;;;;;;;;4987564;28;20038;-70
2022/09/10 13:49:36;;;;;;;2.33;1.02;;;;;;;;;;4984150;28;20066;-80
2022/09/10 13:52:33;;;;;;;3.72;1.15;;;;;;;;;;4967745;28;20482;-77
2022/09/10 13:55:20;;;;;;;4.43;1.35;;;;;;;;;;4984305;28;20195;-71
2022/09/10 13:58:13;;;;;;;2.85;0.70;;;;;;;;;;4972653;28;20112;-60
2022/09/10 14:00:59;;;;;;;2.03;0.93;;;;;;;;;;4986547;28;20030;-64
2022/09/10 14:03:45;;;;;;;1.65;0.93;;;;;;;;;;4985374;28;20477;-64
2022/09/10 14:06:31;;;;;;;3.33;0.98;;;;;;;;;;4987139;28;20441;-66
2022/09/10 14:09:16;;;;;;;1.75;0.90;;;;;;;;;;4986622;28;20031;-75
2022/09/10 14:12:05;;;;;;;1.70;0.93;;;;;;;;;;4973041;28;20369;-67
2022/09/10 14:14:53;;;;;;;2.20;0.90;;;;;;;;;;4985123;28;20414;-77
2022/09/10 14:17:43;;;;;;;2.60;0.80;;;;;;;;;;4986302;28;20026;-81
2022/09/10 14:20:32;;;;;;;3.28;1.20;;;;;;;;;;4977328;28;20074;-79
2022/09/10 14:23:17;;;;;;;6.72;1.25;;;;;;;;;;4975411;28;20026;-80
2022/09/10 14:26:11;;;;;;;4.53;1.20;;;;;;;;;;4984698;28;20022;-80
2022/09/10 14:28:58;;;;;;;4.40;1.38;;;;;;;;;;4971370;28;20512;-74
2022/09/10 14:31:44;;;;;;;5.13;1.20;;;;;;;;;;4985066;28;21737;-82
2022/09/10 14:34:31;;;;;;;2.03;1.13;;;;;;;;;;4985939;28;20117;-72
2022/09/10 14:37:37;;;;;;;3.17;1.20;;;;;;;;;;4967755;28;20470;-73
2022/09/10 14:40:22;;;;;;;4.13;1.35;;;;;;;;;;4973574;28;20034;-73
2022/09/10 14:43:17;;;;;;;2.30;1.25;;;;;;;;;;4966172;28;20051;-73
2022/09/10 14:46:12;;;;;;;4.57;1.30;;;;;;;;;;4966980;28;20501;-73
2022/09/10 14:49:00;;;;;;;2.42;1.00;;;;;;;;;;4965375;28;20043;-73
2022/09/10 14:51:46;;;;;;;2.60;1.48;;;;;;;;;;4969263;28;20035;-72
2022/09/10 14:54:32;;;;;;;3.50;1.38;;;;;;;;;;4952287;28;20464;-79
2022/09/10 14:57:18;;;;;;;3.97;1.50;;;;;;;;;;4963017;28;20422;-79
2022/09/10 15:00:04;;;;;;;4.00;1.23;;;;;;;;;;4960117;28;20034;-80
2022/09/10 15:02:50;;;;;;;3.47;1.58;;;;;;;;;;4962260;28;20576;-80
2022/09/10 15:05:38;;;;;;;5.07;1.45;;;;;;;;;;4956488;28;20581;-79
2022/09/10 15:08:23;;;;;;;2.88;1.10;;;;;;;;;;4972889;28;20039;-74
2022/09/10 15:11:14;;;;;;;4.80;1.80;;;;;;;;;;4961642;28;20062;-75
2022/09/10 15:13:59;;;;;;;6.18;1.55;;;;;;;;;;4967492;28;20469;-74
2022/09/10 15:16:45;;;;;;;4.43;1.67;;;;;;;;;;4970254;28;20041;-74
2022/09/10 15:19:31;;;;;;;3.70;1.42;;;;;;;;;;4975061;28;20027;-73
2022/09/10 15:22:27;;;;;;;2.65;1.67;;;;;;;;;;4976102;28;20032;-74
2022/09/10 15:25:26;;;;;;;2.70;1.58;;;;;;;;;;4979062;28;20034;-71
2022/09/10 15:28:12;;;;;;;5.18;1.50;;;;;;;;;;4992853;28;20042;-88
2022/09/10 15:30:57;;;;;;;3.78;1.33;;;;;;;;;;4989546;28;20030;-73
2022/09/10 15:33:43;;;;;;;4.47;1.17;;;;;;;;;;4977245;28;20607;-73
2022/09/10 15:36:32;;;;;;;3.25;1.40;;;;;;;;;;4977906;28;20033;-73
2022/09/10 15:39:18;;;;;;;4.03;1.50;;;;;;;;;;4979891;28;20121;-73
2022/09/10 15:42:04;;;;;;;2.40;1.55;;;;;;;;;;4984933;28;20426;-73
2022/09/10 15:44:50;;;;;;;2.85;1.27;;;;;;;;;;4979097;28;20030;-82
2022/09/10 15:47:35;;;;;;;5.97;1.40;;;;;;;;;;4972407;28;20043;-75
2022/09/10 15:50:21;;;;;;;6.13;3.00;;;;;;;;;;4989606;28;20426;-74
2022/09/10 15:53:06;;;;;;;4.68;1.67;;;;;;;;;;4984694;28;20081;-73
2022/09/10 15:55:52;;;;;;;3.17;1.58;;;;;;;;;;4980003;28;20045;-73
2022/09/10 15:58:38;;;;;;;10.10;2.63;;;;;;;;;;4974788;28;20026;-73
2022/09/10 16:01:24;;;;;;;3.83;1.35;;;;;;;;;;4975022;28;20022;-75
2022/09/10 16:04:10;;;;;;;3.92;1.25;;;;;;;;;;4985548;28;20041;-74
2022/09/10 16:06:55;;;;;;;2.95;1.48;;;;;;;;;;4987243;28;20080;-81
2022/09/10 16:09:42;;;;;;;4.78;1.42;;;;;;;;;;4974548;28;20117;-82
2022/09/10 16:12:27;;;;;;;1.73;1.00;;;;;;;;;;4975765;28;20018;-82
2022/09/10 16:15:13;;;;;;;3.65;1.67;;;;;;;;;;4990099;28;20034;-82
2022/09/10 16:17:59;;;;;;;3.42;1.60;;;;;;;;;;4980584;28;20030;-82
2022/09/10 16:20:45;;;;;;;2.28;1.27;;;;;;;;;;4986970;28;20505;-82
2022/09/10 16:23:32;;;;;;;2.10;1.50;;;;;;;;;;4971029;28;20092;-74
2022/09/10 16:26:19;;;;;;;2.72;1.10;;;;;;;;;;4975790;28;20454;-74
2022/09/10 16:29:06;;;;;;;1.73;0.90;;;;;;;;;;4991552;28;20045;-74
2022/09/10 16:31:52;;;;;;;1.70;1.00;;;;;;;;;;4983681;28;20022;-75
2022/09/10 16:34:37;;;;;;;3.53;1.23;;;;;;;;;;4978425;28;20038;-73
2022/09/10 16:37:23;;;;;;;2.45;1.00;;;;;;;;;;4983129;28;20395;-74
2022/09/10 16:40:10;;;;;;;1.58;0.93;;;;;;;;;;4974086;28;20026;-72
2022/09/10 16:42:55;;;;;;;3.53;1.13;;;;;;;;;;4973668;28;20030;-79
2022/09/10 16:45:50;;;;;;;4.50;1.40;;;;;;;;;;4980675;28;20049;-73
2022/09/10 16:48:37;;;;;;;4.03;1.10;;;;;;;;;;4985363;28;20117;-73
2022/09/10 16:51:23;;;;;;;4.00;1.20;;;;;;;;;;4969901;28;20023;-73